sensor_id;sensor_type;location;lat;lon;timestamp;pressure;altitude;pressure_sealevel;temperature;humidity
63568;BME280;49715;42.386;20.434;2023-02-15T00:01:55;98843.00;;;-0.03;52.49
63568;BME280;49715;42.386;20.434;2023-02-15T00:04:22;98854.28;;;-0.06;52.41
63568;BME280;49715;42.386;20.434;2023-02-15T00:06:49;98845.81;;;-0.11;52.64
63568;BME280;49715;42.386;20.434;2023-02-15T00:09:18;98851.84;;;-0.10;52.73
63568;BME280;49715;42.386;20.434;2023-02-15T00:11:44;98842.28;;;-0.08;52.75
63568;BME280;49715;42.386;20.434;2023-02-15T00:14:19;98853.41;;;-0.05;52.79
63568;BME280;49715;42.386;20.434;2023-02-15T00:16:45;98849.84;;;-0.02;52.76
63568;BME280;49715;42.386;20.434;2023-02-15T00:19:14;98843.06;;;-0.06;52.53
63568;BME280;49715;42.386;20.434;2023-02-15T00:21:41;98861.28;;;-0.08;52.63
63568;BME280;49715;42.386;20.434;2023-02-15T00:24:08;98866.47;;;-0.08;52.63
63568;BME280;49715;42.386;20.434;2023-02-15T00:26:38;98870.75;;;-0.07;52.68
63568;BME280;49715;42.386;20.434;2023-02-15T00:29:05;98868.09;;;-0.05;52.21
63568;BME280;49715;42.386;20.434;2023-02-15T00:31:32;98868.97;;;-0.05;52.10
63568;BME280;49715;42.386;20.434;2023-02-15T00:34:11;98872.44;;;-0.06;52.27
63568;BME280;49715;42.386;20.434;2023-02-15T00:36:41;98871.69;;;-0.09;52.44
63568;BME280;49715;42.386;20.434;2023-02-15T00:39:08;98873.59;;;-0.14;52.76
63568;BME280;49715;42.386;20.434;2023-02-15T00:41:35;98876.34;;;-0.19;52.84
63568;BME280;49715;42.386;20.434;2023-02-15T00:44:03;98885.94;;;-0.22;52.43
63568;BME280;49715;42.386;20.434;2023-02-15T00:46:30;98883.44;;;-0.26;53.13
63568;BME280;49715;42.386;20.434;2023-02-15T00:48:57;98877.47;;;-0.28;52.80
63568;BME280;49715;42.386;20.434;2023-02-15T00:51:23;98877.53;;;-0.31;54.16
63568;BME280;49715;42.386;20.434;2023-02-15T00:53:50;98880.28;;;-0.35;52.61
63568;BME280;49715;42.386;20.434;2023-02-15T00:56:18;98876.13;;;-0.41;53.30
63568;BME280;49715;42.386;20.434;2023-02-15T00:58:44;98881.44;;;-0.44;52.79
63568;BME280;49715;42.386;20.434;2023-02-15T01:01:13;98883.97;;;-0.42;53.61
63568;BME280;49715;42.386;20.434;2023-02-15T01:03:40;98883.91;;;-0.41;53.01
63568;BME280;49715;42.386;20.434;2023-02-15T01:06:09;98879.44;;;-0.36;53.18
63568;BME280;49715;42.386;20.434;2023-02-15T01:08:36;98875.84;;;-0.32;53.47
63568;BME280;49715;42.386;20.434;2023-02-15T01:11:03;98882.69;;;-0.29;52.77
63568;BME280;49715;42.386;20.434;2023-02-15T01:13:30;98866.41;;;-0.34;52.84
63568;BME280;49715;42.386;20.434;2023-02-15T01:15:56;98880.06;;;-0.28;53.15
63568;BME280;49715;42.386;20.434;2023-02-15T01:18:25;98885.19;;;-0.26;52.85
63568;BME280;49715;42.386;20.434;2023-02-15T01:20:52;98879.06;;;-0.23;52.91
63568;BME280;49715;42.386;20.434;2023-02-15T01:23:19;98878.94;;;-0.20;52.63
63568;BME280;49715;42.386;20.434;2023-02-15T01:25:46;98864.09;;;-0.15;52.22
63568;BME280;49715;42.386;20.434;2023-02-15T01:28:12;98870.94;;;-0.13;52.18
63568;BME280;49715;42.386;20.434;2023-02-15T01:30:40;98869.97;;;-0.09;53.61
63568;BME280;49715;42.386;20.434;2023-02-15T01:33:09;98866.47;;;-0.08;52.91
63568;BME280;49715;42.386;20.434;2023-02-15T01:35:44;98868.16;;;-0.07;52.57
63568;BME280;49715;42.386;20.434;2023-02-15T01:38:12;98868.16;;;-0.07;51.89
63568;BME280;49715;42.386;20.434;2023-02-15T01:40:39;98857.91;;;-0.10;53.03
63568;BME280;49715;42.386;20.434;2023-02-15T01:43:09;98858.75;;;-0.09;52.50
63568;BME280;49715;42.386;20.434;2023-02-15T01:45:37;98855.31;;;-0.10;52.47
63568;BME280;49715;42.386;20.434;2023-02-15T01:50:45;98856.19;;;-0.11;52.40
63568;BME280;49715;42.386;20.434;2023-02-15T01:55:40;98863.16;;;-0.13;52.43
63568;BME280;49715;42.386;20.434;2023-02-15T01:58:10;98857.22;;;-0.16;52.51
63568;BME280;49715;42.386;20.434;2023-02-15T02:00:37;98861.63;;;-0.18;52.71
63568;BME280;49715;42.386;20.434;2023-02-15T02:03:04;98847.16;;;-0.26;53.15
63568;BME280;49715;42.386;20.434;2023-02-15T02:05:30;98852.44;;;-0.29;53.33
63568;BME280;49715;42.386;20.434;2023-02-15T02:07:58;98852.44;;;-0.29;53.02
63568;BME280;49715;42.386;20.434;2023-02-15T02:10:25;98857.72;;;-0.32;53.13
63568;BME280;49715;42.386;20.434;2023-02-15T02:12:57;98848.47;;;-0.39;52.71
63568;BME280;49715;42.386;20.434;2023-02-15T02:15:28;98846.00;;;-0.43;52.83
63568;BME280;49715;42.386;20.434;2023-02-15T02:33:49;98838.03;;;-0.65;52.82
63568;BME280;49715;42.386;20.434;2023-02-15T02:39:12;98830.03;;;-0.86;53.30
63568;BME280;49715;42.386;20.434;2023-02-15T02:44:26;98837.03;;;-0.89;53.69
63568;BME280;49715;42.386;20.434;2023-02-15T02:49:41;98854.56;;;-0.99;54.10
63568;BME280;49715;42.386;20.434;2023-02-15T02:54:54;98857.38;;;-1.07;54.17
63568;BME280;49715;42.386;20.434;2023-02-15T02:57:21;98845.38;;;-1.09;53.84
63568;BME280;49715;42.386;20.434;2023-02-15T02:59:50;98852.22;;;-1.08;54.16
63568;BME280;49715;42.386;20.434;2023-02-15T03:02:18;98856.38;;;-1.02;54.34
63568;BME280;49715;42.386;20.434;2023-02-15T03:04:52;98846.81;;;-0.99;54.17
63568;BME280;49715;42.386;20.434;2023-02-15T03:07:24;98856.13;;;-0.93;54.00
63568;BME280;49715;42.386;20.434;2023-02-15T03:09:53;98856.03;;;-0.90;53.86
63568;BME280;49715;42.386;20.434;2023-02-15T03:12:24;98860.31;;;-0.88;53.74
63568;BME280;49715;42.386;20.434;2023-02-15T03:14:59;98854.16;;;-0.85;54.06
63568;BME280;49715;42.386;20.434;2023-02-15T03:17:27;98866.19;;;-0.83;53.54
63568;BME280;49715;42.386;20.434;2023-02-15T03:19:56;98867.97;;;-0.85;52.99
63568;BME280;49715;42.386;20.434;2023-02-15T03:22:25;98866.41;;;-0.90;53.87
63568;BME280;49715;42.386;20.434;2023-02-15T03:25:02;98866.41;;;-0.90;53.94
63568;BME280;49715;42.386;20.434;2023-02-15T03:27:31;98863.72;;;-0.87;53.97
63568;BME280;49715;42.386;20.434;2023-02-15T03:30:01;98866.22;;;-0.84;53.61
63568;BME280;49715;42.386;20.434;2023-02-15T03:32:28;98865.28;;;-0.82;53.78
63568;BME280;49715;42.386;20.434;2023-02-15T03:34:56;98860.88;;;-0.78;53.83
63568;BME280;49715;42.386;20.434;2023-02-15T03:39:56;98867.63;;;-0.72;53.25
63568;BME280;49715;42.386;20.434;2023-02-15T03:43:07;98874.53;;;-0.73;53.92
63568;BME280;49715;42.386;20.434;2023-02-15T03:45:36;98862.44;;;-0.72;53.68
63568;BME280;49715;42.386;20.434;2023-02-15T03:48:04;98864.91;;;-0.69;53.66
63568;BME280;49715;42.386;20.434;2023-02-15T03:50:32;98877.84;;;-0.68;53.60
63568;BME280;49715;42.386;20.434;2023-02-15T03:53:20;98876.09;;;-0.67;53.35
63568;BME280;49715;42.386;20.434;2023-02-15T03:55:48;98876.13;;;-0.69;53.51
63568;BME280;49715;42.386;20.434;2023-02-15T03:58:15;98876.13;;;-0.69;53.29
63568;BME280;49715;42.386;20.434;2023-02-15T04:01:03;98881.28;;;-0.69;53.31
63568;BME280;49715;42.386;20.434;2023-02-15T04:03:57;98882.13;;;-0.68;53.23
63568;BME280;49715;42.386;20.434;2023-02-15T04:06:24;98881.28;;;-0.67;53.43
63568;BME280;49715;42.386;20.434;2023-02-15T04:08:50;98887.25;;;-0.65;52.65
63568;BME280;49715;42.386;20.434;2023-02-15T04:11:35;98890.81;;;-0.69;53.05
63568;BME280;49715;42.386;20.434;2023-02-15T04:14:01;98878.13;;;-0.79;53.71
63568;BME280;49715;42.386;20.434;2023-02-15T04:16:47;98888.34;;;-0.74;53.57
63568;BME280;49715;42.386;20.434;2023-02-15T04:19:14;98886.66;;;-0.75;53.42
63568;BME280;49715;42.386;20.434;2023-02-15T04:21:58;98891.88;;;-0.76;53.15
63568;BME280;49715;42.386;20.434;2023-02-15T04:24:43;98898.84;;;-0.79;53.72
63568;BME280;49715;42.386;20.434;2023-02-15T04:27:28;98896.31;;;-0.80;53.38
63568;BME280;49715;42.386;20.434;2023-02-15T04:29:54;98897.25;;;-0.83;53.47
63568;BME280;49715;42.386;20.434;2023-02-15T04:32:21;98895.53;;;-0.84;53.25
63568;BME280;49715;42.386;20.434;2023-02-15T04:34:47;98890.47;;;-0.87;53.06
63568;BME280;49715;42.386;20.434;2023-02-15T04:37:13;98900.06;;;-0.90;53.69
63568;BME280;49715;42.386;20.434;2023-02-15T04:39:39;98906.16;;;-0.93;53.70
63568;BME280;49715;42.386;20.434;2023-02-15T04:42:06;98901.03;;;-0.94;53.02
63568;BME280;49715;42.386;20.434;2023-02-15T04:44:32;98903.75;;;-0.99;53.34
63568;BME280;49715;42.386;20.434;2023-02-15T04:46:58;98911.59;;;-1.02;53.90
63568;BME280;49715;42.386;20.434;2023-02-15T04:49:24;98916.78;;;-1.02;53.69
63568;BME280;49715;42.386;20.434;2023-02-15T04:51:50;98916.78;;;-1.02;53.28
63568;BME280;49715;42.386;20.434;2023-02-15T04:54:16;98922.94;;;-1.08;53.47
63568;BME280;49715;42.386;20.434;2023-02-15T04:56:43;98927.44;;;-1.14;53.73
63568;BME280;49715;42.386;20.434;2023-02-15T04:59:10;98926.72;;;-1.19;53.79
63568;BME280;49715;42.386;20.434;2023-02-15T05:01:36;98924.22;;;-1.22;53.49
63568;BME280;49715;42.386;20.434;2023-02-15T05:04:03;98929.50;;;-1.25;53.44
63568;BME280;49715;42.386;20.434;2023-02-15T05:06:29;98921.06;;;-1.34;53.95
63568;BME280;49715;42.386;20.434;2023-02-15T05:08:55;98930.69;;;-1.39;54.52
63568;BME280;49715;42.386;20.434;2023-02-15T05:11:21;98932.38;;;-1.38;54.30
63568;BME280;49715;42.386;20.434;2023-02-15T05:13:48;98936.75;;;-1.40;54.56
63568;BME280;49715;42.386;20.434;2023-02-15T05:16:15;98937.66;;;-1.41;54.53
63568;BME280;49715;42.386;20.434;2023-02-15T05:18:41;98935.94;;;-1.42;53.93
63568;BME280;49715;42.386;20.434;2023-02-15T05:21:08;98936.91;;;-1.46;54.15
63568;BME280;49715;42.386;20.434;2023-02-15T05:23:34;98933.50;;;-1.48;54.53
63568;BME280;49715;42.386;20.434;2023-02-15T05:26:00;98943.84;;;-1.48;54.34
63568;BME280;49715;42.386;20.434;2023-02-15T05:28:45;98948.19;;;-1.48;54.19
63568;BME280;49715;42.386;20.434;2023-02-15T05:31:12;98951.59;;;-1.48;54.15
63568;BME280;49715;42.386;20.434;2023-02-15T05:33:39;98952.47;;;-1.47;54.58
63568;BME280;49715;42.386;20.434;2023-02-15T05:36:06;98957.63;;;-1.46;54.58
63568;BME280;49715;42.386;20.434;2023-02-15T05:38:32;98958.47;;;-1.45;54.30
63568;BME280;49715;42.386;20.434;2023-02-15T05:40:59;98955.88;;;-1.45;53.86
63568;BME280;49715;42.386;20.434;2023-02-15T05:43:25;98961.06;;;-1.47;54.00
63568;BME280;49715;42.386;20.434;2023-02-15T05:45:54;98966.31;;;-1.50;53.85
63568;BME280;49715;42.386;20.434;2023-02-15T05:48:22;98975.03;;;-1.54;54.56
63568;BME280;49715;42.386;20.434;2023-02-15T05:53:27;98976.75;;;-1.53;54.81
63568;BME280;49715;42.386;20.434;2023-02-15T05:55:53;98979.25;;;-1.50;54.56
63568;BME280;49715;42.386;20.434;2023-02-15T05:58:31;98982.66;;;-1.48;54.36
63568;BME280;49715;42.386;20.434;2023-02-15T06:00:59;98976.56;;;-1.45;54.77
63568;BME280;49715;42.386;20.434;2023-02-15T06:03:27;98978.19;;;-1.41;54.53
63568;BME280;49715;42.386;20.434;2023-02-15T06:05:54;98983.19;;;-1.35;54.14
63568;BME280;49715;42.386;20.434;2023-02-15T06:08:20;98977.09;;;-1.33;54.49
63568;BME280;49715;42.386;20.434;2023-02-15T06:10:47;98980.44;;;-1.29;54.31
63568;BME280;49715;42.386;20.434;2023-02-15T06:13:13;98978.66;;;-1.27;54.62
63568;BME280;49715;42.386;20.434;2023-02-15T06:15:39;98977.69;;;-1.23;53.83
63568;BME280;49715;42.386;20.434;2023-02-15T06:18:05;98980.16;;;-1.18;54.77
63568;BME280;49715;42.386;20.434;2023-02-15T06:20:32;98994.66;;;-1.11;54.17
63568;BME280;49715;42.386;20.434;2023-02-15T06:22:59;98985.03;;;-1.06;54.69
63568;BME280;49715;42.386;20.434;2023-02-15T06:25:26;98989.13;;;-0.97;54.68
63568;BME280;49715;42.386;20.434;2023-02-15T06:27:52;98993.19;;;-0.89;54.47
63568;BME280;49715;42.386;20.434;2023-02-15T06:30:19;98998.09;;;-0.80;54.65
63568;BME280;49715;42.386;20.434;2023-02-15T06:32:45;98994.34;;;-0.68;54.49
63568;BME280;49715;42.386;20.434;2023-02-15T06:35:14;98999.22;;;-0.57;54.16
63568;BME280;49715;42.386;20.434;2023-02-15T06:37:41;98997.25;;;-0.49;53.96
63568;BME280;49715;42.386;20.434;2023-02-15T06:40:07;98996.16;;;-0.40;54.63
63568;BME280;49715;42.386;20.434;2023-02-15T06:42:34;98997.69;;;-0.33;53.88
63568;BME280;49715;42.386;20.434;2023-02-15T06:45:00;98994.00;;;-0.26;53.90
63568;BME280;49715;42.386;20.434;2023-02-15T06:47:28;98986.84;;;-0.18;53.87
63568;BME280;49715;42.386;20.434;2023-02-15T06:49:55;98996.09;;;-0.09;53.65
63568;BME280;49715;42.386;20.434;2023-02-15T06:52:23;98997.59;;;-0.02;53.65
63568;BME280;49715;42.386;20.434;2023-02-15T06:54:49;98990.41;;;0.08;53.25
63568;BME280;49715;42.386;20.434;2023-02-15T06:57:16;98985.00;;;0.15;53.57
63568;BME280;49715;42.386;20.434;2023-02-15T06:59:42;98989.91;;;0.23;53.91
63568;BME280;49715;42.386;20.434;2023-02-15T07:02:09;98991.28;;;0.35;53.86
63568;BME280;49715;42.386;20.434;2023-02-15T07:04:36;98990.94;;;0.45;53.40
63568;BME280;49715;42.386;20.434;2023-02-15T07:07:03;98990.59;;;0.56;53.49
63568;BME280;49715;42.386;20.434;2023-02-15T07:09:29;98991.13;;;0.66;52.98
63568;BME280;49715;42.386;20.434;2023-02-15T07:11:56;98985.69;;;0.73;53.46
63568;BME280;49715;42.386;20.434;2023-02-15T07:14:41;98978.38;;;0.85;53.28
63568;BME280;49715;42.386;20.434;2023-02-15T07:17:07;98986.66;;;0.96;53.68
63568;BME280;49715;42.386;20.434;2023-02-15T07:19:33;98977.53;;;1.09;53.08
63568;BME280;49715;42.386;20.434;2023-02-15T07:22:00;98971.13;;;1.19;52.68
63568;BME280;49715;42.386;20.434;2023-02-15T07:24:27;98978.75;;;1.24;52.70
63568;BME280;49715;42.386;20.434;2023-02-15T07:26:54;98968.19;;;1.28;53.13
63568;BME280;49715;42.386;20.434;2023-02-15T07:29:20;98975.66;;;1.38;53.94
63568;BME280;49715;42.386;20.434;2023-02-15T07:31:49;98973.50;;;1.49;52.97
63568;BME280;49715;42.386;20.434;2023-02-15T07:34:16;98975.84;;;1.57;52.96
63568;BME280;49715;42.386;20.434;2023-02-15T07:39:32;98973.38;;;1.75;53.33
63568;BME280;49715;42.386;20.434;2023-02-15T07:41:59;98972.91;;;1.88;53.51
63568;BME280;49715;42.386;20.434;2023-02-15T07:44:52;98971.91;;;1.92;54.95
63568;BME280;49715;42.386;20.434;2023-02-15T07:47:40;98970.25;;;1.89;53.75
63568;BME280;49715;42.386;20.434;2023-02-15T07:50:11;98965.78;;;1.93;52.61
63568;BME280;49715;42.386;20.434;2023-02-15T07:53:03;98970.75;;;1.99;54.52
63568;BME280;49715;42.386;20.434;2023-02-15T07:55:30;98969.78;;;2.01;54.61
63568;BME280;49715;42.386;20.434;2023-02-15T07:58:06;98970.75;;;1.99;54.03
63568;BME280;49715;42.386;20.434;2023-02-15T08:00:35;98973.41;;;1.97;54.04
63568;BME280;49715;42.386;20.434;2023-02-15T08:03:24;98962.91;;;2.00;54.39
63568;BME280;49715;42.386;20.434;2023-02-15T08:05:56;98967.06;;;2.04;54.62
63568;BME280;49715;42.386;20.434;2023-02-15T08:08:32;98969.44;;;2.11;54.20
63568;BME280;49715;42.386;20.434;2023-02-15T08:11:22;98957.78;;;2.19;53.43
63568;BME280;49715;42.386;20.434;2023-02-15T08:16:38;98954.09;;;2.47;52.71
63568;BME280;49715;42.386;20.434;2023-02-15T08:19:34;98956.72;;;2.67;52.60
63568;BME280;49715;42.386;20.434;2023-02-15T08:22:06;98959.47;;;2.84;52.03
63568;BME280;49715;42.386;20.434;2023-02-15T08:24:56;98959.56;;;3.02;52.49
63568;BME280;49715;42.386;20.434;2023-02-15T08:30:18;98944.78;;;3.23;52.74
63568;BME280;49715;42.386;20.434;2023-02-15T08:32:45;98961.00;;;3.48;52.34
63568;BME280;49715;42.386;20.434;2023-02-15T08:35:12;98955.03;;;3.65;52.51
63568;BME280;49715;42.386;20.434;2023-02-15T08:37:46;98955.31;;;3.78;51.79
63568;BME280;49715;42.386;20.434;2023-02-15T08:40:15;98957.97;;;3.95;51.57
63568;BME280;49715;42.386;20.434;2023-02-15T08:42:53;98955.56;;;4.09;52.38
63568;BME280;49715;42.386;20.434;2023-02-15T08:45:24;98960.13;;;4.23;51.18
63568;BME280;49715;42.386;20.434;2023-02-15T08:47:52;98955.09;;;4.37;50.92
63568;BME280;49715;42.386;20.434;2023-02-15T08:50:23;98956.94;;;4.53;50.72
63568;BME280;49715;42.386;20.434;2023-02-15T08:52:50;98947.50;;;4.68;51.63
63568;BME280;49715;42.386;20.434;2023-02-15T08:55:17;98959.13;;;4.79;51.17
63568;BME280;49715;42.386;20.434;2023-02-15T08:57:45;98955.97;;;4.90;50.60
63568;BME280;49715;42.386;20.434;2023-02-15T09:00:14;98955.41;;;5.01;50.40
63568;BME280;49715;42.386;20.434;2023-02-15T09:02:41;98955.31;;;5.20;50.04
63568;BME280;49715;42.386;20.434;2023-02-15T09:05:07;98955.44;;;5.34;49.70
63568;BME280;49715;42.386;20.434;2023-02-15T09:07:33;98958.16;;;5.48;49.57
63568;BME280;49715;42.386;20.434;2023-02-15T09:10:00;98959.13;;;5.63;49.30
63568;BME280;49715;42.386;20.434;2023-02-15T09:12:27;98951.53;;;5.74;48.73
63568;BME280;49715;42.386;20.434;2023-02-15T09:14:54;98950.34;;;5.80;48.19
63568;BME280;49715;42.386;20.434;2023-02-15T09:17:20;98952.81;;;5.83;48.24
63568;BME280;49715;42.386;20.434;2023-02-15T09:19:49;98944.88;;;5.84;48.69
63568;BME280;49715;42.386;20.434;2023-02-15T09:22:15;98948.91;;;5.90;48.71
63568;BME280;49715;42.386;20.434;2023-02-15T09:25:02;98950.06;;;6.02;48.92
63568;BME280;49715;42.386;20.434;2023-02-15T09:27:29;98942.44;;;6.13;48.51
63568;BME280;49715;42.386;20.434;2023-02-15T09:29:55;98944.19;;;6.28;48.01
63568;BME280;49715;42.386;20.434;2023-02-15T09:32:26;98945.38;;;6.38;48.03
63568;BME280;49715;42.386;20.434;2023-02-15T09:34:53;98935.84;;;6.37;48.04
63568;BME280;49715;42.386;20.434;2023-02-15T09:37:19;98943.66;;;6.53;48.01
63568;BME280;49715;42.386;20.434;2023-02-15T09:39:46;98942.13;;;6.65;47.79
63568;BME280;49715;42.386;20.434;2023-02-15T09:50:53;98934.25;;;7.09;46.73
63568;BME280;49715;42.386;20.434;2023-02-15T09:56:07;98931.25;;;7.30;46.80
63568;BME280;49715;42.386;20.434;2023-02-15T09:58:53;98932.56;;;7.37;46.78
63568;BME280;49715;42.386;20.434;2023-02-15T10:01:28;98931.44;;;7.41;46.19
63568;BME280;49715;42.386;20.434;2023-02-15T10:04:07;98926.13;;;7.42;46.27
63568;BME280;49715;42.386;20.434;2023-02-15T10:06:44;98915.53;;;7.44;46.16
63568;BME280;49715;42.386;20.434;2023-02-15T10:09:19;98912.44;;;7.52;46.48
63568;BME280;49715;42.386;20.434;2023-02-15T10:11:57;98917.09;;;7.61;46.39
63568;BME280;49715;42.386;20.434;2023-02-15T10:25:16;98894.81;;;7.95;45.74
63568;BME280;49715;42.386;20.434;2023-02-15T10:27:48;98894.22;;;8.04;45.85
63568;BME280;49715;42.386;20.434;2023-02-15T10:30:24;98886.28;;;8.18;45.97
63568;BME280;49715;42.386;20.434;2023-02-15T10:35:52;98875.91;;;8.57;45.39
63568;BME280;49715;42.386;20.434;2023-02-15T10:38:27;98869.44;;;8.75;45.07
63568;BME280;49715;42.386;20.434;2023-02-15T10:43:58;98863.97;;;8.91;45.11
63568;BME280;49715;42.386;20.434;2023-02-15T10:46:52;98856.47;;;8.97;44.28
63568;BME280;49715;42.386;20.434;2023-02-15T10:49:30;98849.97;;;9.03;44.44
63568;BME280;49715;42.386;20.434;2023-02-15T11:01:25;98828.09;;;9.52;43.66
63568;BME280;49715;42.386;20.434;2023-02-15T11:04:09;98829.13;;;9.62;44.15
63568;BME280;49715;42.386;20.434;2023-02-15T11:06:42;98820.22;;;9.76;43.37
63568;BME280;49715;42.386;20.434;2023-02-15T11:09:19;98813.94;;;9.90;43.56
63568;BME280;49715;42.386;20.434;2023-02-15T11:11:48;98811.94;;;9.93;42.73
63568;BME280;49715;42.386;20.434;2023-02-15T11:16:59;98810.47;;;10.13;42.51
63568;BME280;49715;42.386;20.434;2023-02-15T11:22:02;98800.19;;;10.21;43.21
63568;BME280;49715;42.386;20.434;2023-02-15T11:24:33;98797.44;;;10.23;41.93
63568;BME280;49715;42.386;20.434;2023-02-15T11:29:50;98794.63;;;10.37;42.45
63568;BME280;49715;42.386;20.434;2023-02-15T11:37:39;98769.03;;;10.62;41.23
63568;BME280;49715;42.386;20.434;2023-02-15T11:42:48;98776.84;;;10.97;42.81
63568;BME280;49715;42.386;20.434;2023-02-15T11:45:26;98774.94;;;10.99;40.68
63568;BME280;49715;42.386;20.434;2023-02-15T11:47:53;98768.69;;;11.00;41.16
63568;BME280;49715;42.386;20.434;2023-02-15T11:50:22;98761.59;;;11.12;41.67
63568;BME280;49715;42.386;20.434;2023-02-15T11:52:49;98759.56;;;11.26;40.98
63568;BME280;49715;42.386;20.434;2023-02-15T11:55:20;98762.06;;;11.39;40.91
63568;BME280;49715;42.386;20.434;2023-02-15T11:57:52;98759.88;;;11.44;41.92
63568;BME280;49715;42.386;20.434;2023-02-15T12:00:27;98758.31;;;11.42;41.63
63568;BME280;49715;42.386;20.434;2023-02-15T12:03:00;98737.69;;;11.35;41.30
63568;BME280;49715;42.386;20.434;2023-02-15T12:05:28;98746.72;;;11.33;42.71
63568;BME280;49715;42.386;20.434;2023-02-15T12:07:57;98736.72;;;11.37;42.66
63568;BME280;49715;42.386;20.434;2023-02-15T12:13:17;98728.59;;;11.72;42.57
63568;BME280;49715;42.386;20.434;2023-02-15T12:15:49;98731.94;;;11.85;41.56
63568;BME280;49715;42.386;20.434;2023-02-15T12:18:21;98731.38;;;12.02;41.49
63568;BME280;49715;42.386;20.434;2023-02-15T12:20:53;98732.50;;;12.21;40.29
63568;BME280;49715;42.386;20.434;2023-02-15T12:23:23;98730.47;;;12.34;40.31
63568;BME280;49715;42.386;20.434;2023-02-15T12:25:53;98727.78;;;12.45;39.13
63568;BME280;49715;42.386;20.434;2023-02-15T12:30:50;98721.59;;;12.66;39.81
63568;BME280;49715;42.386;20.434;2023-02-15T12:33:17;98713.53;;;12.67;40.09
63568;BME280;49715;42.386;20.434;2023-02-15T12:35:54;98714.38;;;12.68;39.91
63568;BME280;49715;42.386;20.434;2023-02-15T12:38:23;98704.94;;;12.75;39.27
63568;BME280;49715;42.386;20.434;2023-02-15T12:40:59;98703.84;;;12.87;40.25
63568;BME280;49715;42.386;20.434;2023-02-15T12:43:27;98697.50;;;12.99;40.47
63568;BME280;49715;42.386;20.434;2023-02-15T12:48:41;98692.84;;;13.32;40.76
63568;BME280;49715;42.386;20.434;2023-02-15T12:51:13;98688.44;;;13.42;40.08
63568;BME280;49715;42.386;20.434;2023-02-15T12:53:41;98682.69;;;13.37;40.66
63568;BME280;49715;42.386;20.434;2023-02-15T12:56:09;98686.72;;;13.31;38.52
63568;BME280;49715;42.386;20.434;2023-02-15T12:58:37;98691.91;;;13.43;40.59
63568;BME280;49715;42.386;20.434;2023-02-15T13:06:33;98689.72;;;13.77;38.91
63568;BME280;49715;42.386;20.434;2023-02-15T13:09:25;98689.56;;;13.78;39.38
63568;BME280;49715;42.386;20.434;2023-02-15T13:11:47;98683.69;;;13.84;39.88
63568;BME280;49715;42.386;20.434;2023-02-15T13:14:20;98692.75;;;13.91;39.29
63568;BME280;49715;42.386;20.434;2023-02-15T13:16:49;98684.66;;;14.03;40.60
63568;BME280;49715;42.386;20.434;2023-02-15T13:19:17;98680.59;;;14.08;39.82
63568;BME280;49715;42.386;20.434;2023-02-15T13:21:46;98688.28;;;14.11;38.17
63568;BME280;49715;42.386;20.434;2023-02-15T13:26:43;98675.28;;;14.18;39.59
63568;BME280;49715;42.386;20.434;2023-02-15T13:31:51;98665.78;;;14.25;40.64
63568;BME280;49715;42.386;20.434;2023-02-15T13:34:20;98669.38;;;14.34;39.18
63568;BME280;49715;42.386;20.434;2023-02-15T13:37:01;98678.44;;;14.41;39.60
63568;BME280;49715;42.386;20.434;2023-02-15T13:39:37;98671.88;;;14.45;39.98
63568;BME280;49715;42.386;20.434;2023-02-15T13:53:09;98672.22;;;14.70;38.16
63568;BME280;49715;42.386;20.434;2023-02-15T14:01:44;98672.50;;;14.66;40.77
63568;BME280;49715;42.386;20.434;2023-02-15T14:23:12;98659.88;;;14.41;39.84
63568;BME280;49715;42.386;20.434;2023-02-15T14:25:49;98658.31;;;14.48;39.68
63568;BME280;49715;42.386;20.434;2023-02-15T14:28:23;98653.56;;;14.52;40.52
63568;BME280;49715;42.386;20.434;2023-02-15T14:30:56;98655.25;;;14.53;39.81
63568;BME280;49715;42.386;20.434;2023-02-15T14:35:53;98649.94;;;14.53;41.03
63568;BME280;49715;42.386;20.434;2023-02-15T14:41:08;98647.63;;;14.30;39.34
63568;BME280;49715;42.386;20.434;2023-02-15T14:48:53;98652.06;;;14.30;39.00
63568;BME280;49715;42.386;20.434;2023-02-15T14:56:44;98652.25;;;14.18;40.50
63568;BME280;49715;42.386;20.434;2023-02-15T15:01:40;98657.19;;;13.94;40.70
63568;BME280;49715;42.386;20.434;2023-02-15T15:04:13;98662.38;;;13.86;39.70
63568;BME280;49715;42.386;20.434;2023-02-15T15:06:41;98662.63;;;13.83;39.10
63568;BME280;49715;42.386;20.434;2023-02-15T15:09:27;98658.88;;;13.76;40.77
63568;BME280;49715;42.386;20.434;2023-02-15T15:12:18;98660.00;;;13.63;40.95
63568;BME280;49715;42.386;20.434;2023-02-15T15:15:02;98663.34;;;13.56;40.59
63568;BME280;49715;42.386;20.434;2023-02-15T15:22:33;98657.09;;;13.47;41.33
63568;BME280;49715;42.386;20.434;2023-02-15T15:25:00;98657.75;;;13.30;41.20
63568;BME280;49715;42.386;20.434;2023-02-15T15:30:46;98656.34;;;12.76;40.98
63568;BME280;49715;42.386;20.434;2023-02-15T15:33:02;98659.47;;;12.50;41.57
63568;BME280;49715;42.386;20.434;2023-02-15T15:49:00;98646.44;;;11.22;40.64
63568;BME280;49715;42.386;20.434;2023-02-15T15:51:28;98651.53;;;11.14;40.38
63568;BME280;49715;42.386;20.434;2023-02-15T15:53:58;98654.75;;;11.06;40.53
63568;BME280;49715;42.386;20.434;2023-02-15T15:56:27;98651.06;;;10.97;40.39
63568;BME280;49715;42.386;20.434;2023-02-15T15:58:59;98647.25;;;10.90;40.40
63568;BME280;49715;42.386;20.434;2023-02-15T16:01:28;98647.97;;;10.81;40.49
63568;BME280;49715;42.386;20.434;2023-02-15T16:03:56;98650.66;;;10.70;40.38
63568;BME280;49715;42.386;20.434;2023-02-15T16:08:54;98649.69;;;10.48;40.72
63568;BME280;49715;42.386;20.434;2023-02-15T16:11:22;98644.41;;;10.37;40.73
63568;BME280;49715;42.386;20.434;2023-02-15T16:13:49;98651.34;;;10.27;40.61
63568;BME280;49715;42.386;20.434;2023-02-15T16:16:26;98646.75;;;10.18;40.80
63568;BME280;49715;42.386;20.434;2023-02-15T16:18:57;98644.97;;;10.07;40.67
63568;BME280;49715;42.386;20.434;2023-02-15T16:21:30;98654.53;;;9.97;40.63
63568;BME280;49715;42.386;20.434;2023-02-15T16:29:14;98654.56;;;9.62;41.10
63568;BME280;49715;42.386;20.434;2023-02-15T16:31:40;98663.34;;;9.49;40.98